Time;durP1;ratioP1;P1;durP2;ratioP2;P2;SDS_P1;SDS_P2;PMS_P1;PMS_P2;Temp;Humidity;BMP_temperature;BMP_pressure;BME280_temperature;BME280_humidity;BME280_pressure;Samples;Min_cycle;Max_cycle;Signal;HPM_P1;HPM_P2
2023/11/27 00:00:05;;;;;;;11.27;7.53;;;;;21.40;99906.00;;;;2064940;28;20250;-63
2023/11/27 00:01:08;;;;;;;9.77;7.07;;;;;21.40;99906.00;;;;2063758;28;20610;-63
2023/11/27 00:02:08;;;;;;;11.40;8.05;;;;;21.40;99909.00;;;;2063236;28;20319;-63
2023/11/27 00:03:08;;;;;;;10.37;7.43;;;;;21.40;99898.00;;;;2063337;28;20225;-63
2023/11/27 00:04:09;;;;;;;9.93;7.30;;;;;21.40;99897.00;;;;2053428;28;20238;-63
2023/11/27 00:05:09;;;;;;;9.80;7.70;;;;;21.40;99901.00;;;;2060059;28;20246;-63
2023/11/27 00:06:10;;;;;;;11.13;7.30;;;;;21.30;99904.00;;;;2062932;28;20268;-63
2023/11/27 00:07:10;;;;;;;10.33;6.80;;;;;21.40;99893.00;;;;2063983;28;20226;-63
2023/11/27 00:08:10;;;;;;;10.33;7.17;;;;;21.30;99893.00;;;;2062604;28;20214;-63
2023/11/27 00:09:10;;;;;;;9.87;7.00;;;;;21.30;99905.00;;;;2053688;28;20253;-63
2023/11/27 00:10:11;;;;;;;8.73;6.40;;;;;21.30;99897.00;;;;2063923;28;20243;-63
2023/11/27 00:11:11;;;;;;;9.70;6.67;;;;;21.40;99896.00;;;;2063414;28;20248;-63
2023/11/27 00:12:11;;;;;;;9.80;6.47;;;;;21.40;99890.00;;;;2062670;28;20637;-63
2023/11/27 00:13:12;;;;;;;12.77;6.30;;;;;21.30;99897.00;;;;2063889;28;20691;-63
2023/11/27 00:14:12;;;;;;;7.70;5.87;;;;;21.30;99900.00;;;;2051789;28;20697;-63
2023/11/27 00:15:13;;;;;;;11.07;6.33;;;;;21.20;99890.00;;;;2063758;28;20740;-63
2023/11/27 00:16:14;;;;;;;9.32;5.78;;;;;21.30;99885.00;;;;2066935;28;20221;-63
2023/11/27 00:17:14;;;;;;;8.00;5.77;;;;;21.30;99885.00;;;;2070173;28;20252;-63
2023/11/27 00:18:14;;;;;;;8.37;5.43;;;;;21.30;99891.00;;;;2062319;28;20218;-63
2023/11/27 00:19:15;;;;;;;8.37;5.90;;;;;21.30;99887.00;;;;2053188;28;20215;-63
2023/11/27 00:20:15;;;;;;;8.10;5.63;;;;;21.30;99873.00;;;;2063829;28;20221;-63
2023/11/27 00:21:15;;;;;;;9.00;5.97;;;;;21.30;99877.00;;;;2067523;28;20798;-63
2023/11/27 00:22:16;;;;;;;8.57;6.07;;;;;21.30;99885.00;;;;2063753;28;20229;-63
2023/11/27 00:23:16;;;;;;;7.33;5.70;;;;;21.30;99880.00;;;;2065042;28;20215;-63
2023/11/27 00:24:17;;;;;;;7.27;5.70;;;;;21.30;99887.00;;;;2050592;28;20226;-63
2023/11/27 00:25:17;;;;;;;7.37;5.50;;;;;21.30;99884.00;;;;2062092;28;20222;-63
2023/11/27 00:26:18;;;;;;;8.03;5.40;;;;;21.30;99876.00;;;;2062501;28;20462;-63
2023/11/27 00:27:18;;;;;;;6.03;4.73;;;;;21.20;99878.00;;;;2062601;28;20215;-63
2023/11/27 00:28:18;;;;;;;6.27;4.93;;;;;21.30;99866.00;;;;2062376;28;20217;-63
2023/11/27 00:29:19;;;;;;;9.27;5.27;;;;;21.20;99870.00;;;;2053413;28;20202;-63
2023/11/27 00:30:19;;;;;;;9.53;4.67;;;;;21.20;99873.00;;;;2062938;28;20253;-63
2023/11/27 00:31:19;;;;;;;9.10;5.67;;;;;21.20;99870.00;;;;2070881;28;20206;-63
2023/11/27 00:32:20;;;;;;;8.80;5.23;;;;;21.20;99865.00;;;;2063572;28;20589;-63
2023/11/27 00:33:20;;;;;;;10.30;5.77;;;;;21.20;99867.00;;;;2067559;28;20569;-63
2023/11/27 00:34:21;;;;;;;7.77;5.37;;;;;21.30;99864.00;;;;2053656;28;20213;-63
2023/11/27 00:35:21;;;;;;;7.03;4.85;;;;;21.20;99871.00;;;;2063425;28;20234;-63
2023/11/27 00:36:22;;;;;;;5.90;4.10;;;;;21.20;99847.00;;;;2063023;28;20719;-63
2023/11/27 00:37:22;;;;;;;8.03;5.57;;;;;21.20;99858.00;;;;2061755;28;20679;-63
2023/11/27 00:38:22;;;;;;;6.90;4.67;;;;;21.30;99852.00;;;;2063417;28;20221;-63
2023/11/27 00:39:23;;;;;;;7.07;5.20;;;;;21.20;99849.00;;;;2053955;28;20207;-63
2023/11/27 00:40:23;;;;;;;7.33;4.90;;;;;21.20;99852.00;;;;2067101;28;20306;-63
2023/11/27 00:41:23;;;;;;;7.17;4.50;;;;;21.20;99855.00;;;;2063528;28;20669;-63
2023/11/27 00:42:24;;;;;;;5.70;4.20;;;;;21.20;99852.00;;;;2064256;28;20710;-63
2023/11/27 00:43:24;;;;;;;5.93;3.90;;;;;21.20;99852.00;;;;2062886;28;20218;-63
2023/11/27 00:44:24;;;;;;;6.30;4.53;;;;;21.20;99845.00;;;;2052354;28;20226;-63
2023/11/27 00:45:25;;;;;;;6.60;4.17;;;;;21.20;99844.00;;;;2063470;28;20219;-63
2023/11/27 00:46:25;;;;;;;5.17;3.70;;;;;21.20;99845.00;;;;2060639;28;20214;-63
2023/11/27 00:47:26;;;;;;;6.60;4.30;;;;;21.20;99846.00;;;;2064147;28;20234;-64
2023/11/27 00:48:26;;;;;;;6.77;4.30;;;;;21.10;99833.00;;;;2064402;28;20233;-63
2023/11/27 00:49:26;;;;;;;6.10;3.80;;;;;21.20;99841.00;;;;2054919;28;20461;-63
2023/11/27 00:50:27;;;;;;;6.57;3.97;;;;;21.10;99844.00;;;;2063688;28;20223;-63
2023/11/27 00:51:27;;;;;;;5.80;4.27;;;;;21.10;99838.00;;;;2065098;28;20215;-63
2023/11/27 00:52:28;;;;;;;5.97;3.70;;;;;21.20;99836.00;;;;2070216;28;20217;-63
2023/11/27 00:53:28;;;;;;;6.10;3.60;;;;;21.10;99833.00;;;;2065335;28;20222;-63
2023/11/27 00:54:28;;;;;;;5.67;4.10;;;;;21.10;99828.00;;;;2055002;28;20744;-63
2023/11/27 00:55:29;;;;;;;6.10;4.27;;;;;21.10;99822.00;;;;2065335;28;20674;-63
2023/11/27 00:56:29;;;;;;;5.33;3.83;;;;;21.10;99832.00;;;;2061846;28;20353;-63
2023/11/27 00:57:30;;;;;;;7.23;4.33;;;;;21.20;99827.00;;;;2071652;28;20257;-63
2023/11/27 00:58:31;;;;;;;5.68;3.65;;;;;21.10;99830.00;;;;2065204;28;20207;-63
2023/11/27 00:59:31;;;;;;;5.87;3.50;;;;;21.10;99820.00;;;;2066001;28;20272;-63
2023/11/27 01:00:32;;;;;;;8.30;3.73;;;;;21.10;99817.00;;;;2072537;28;20210;-63
2023/11/27 01:01:32;;;;;;;6.87;4.20;;;;;21.10;99804.00;;;;2065863;28;20215;-63
2023/11/27 01:02:32;;;;;;;5.70;3.80;;;;;21.10;99811.00;;;;2064511;28;20226;-63
2023/11/27 01:03:33;;;;;;;7.53;3.90;;;;;21.10;99800.00;;;;2064164;28;20221;-63
2023/11/27 01:04:33;;;;;;;5.47;3.50;;;;;21.10;99818.00;;;;2054695;28;20219;-63
2023/11/27 01:05:33;;;;;;;5.10;3.17;;;;;21.10;99807.00;;;;2064380;28;20246;-63
2023/11/27 01:06:34;;;;;;;4.90;3.60;;;;;21.10;99813.00;;;;2067510;28;20213;-63
2023/11/27 01:07:34;;;;;;;5.47;3.60;;;;;21.10;99807.00;;;;2065087;28;20744;-63
2023/11/27 01:08:34;;;;;;;6.00;3.20;;;;;21.00;99806.00;;;;2064659;28;20254;-63
2023/11/27 01:09:37;;;;;;;5.67;3.50;;;;;21.10;99809.00;;;;2055411;28;20222;-63
2023/11/27 01:10:37;;;;;;;5.00;3.13;;;;;21.10;99796.00;;;;2064314;28;20222;-63
2023/11/27 01:11:38;;;;;;;4.43;2.83;;;;;21.10;99803.00;;;;2062788;28;20221;-63
2023/11/27 01:12:42;;;;;;;4.37;3.30;;;;;21.10;99802.00;;;;2065042;28;20210;-63
2023/11/27 01:13:43;;;;;;;5.63;3.60;;;;;21.00;99802.00;;;;2057298;28;20478;-63
2023/11/27 01:14:43;;;;;;;7.97;3.70;;;;;21.00;99803.00;;;;2056158;28;20223;-63
2023/11/27 01:15:44;;;;;;;5.20;3.13;;;;;21.00;99798.00;;;;2066984;28;20257;-63
2023/11/27 01:16:44;;;;;;;6.77;3.47;;;;;21.00;99805.00;;;;2067976;28;20215;-63
2023/11/27 01:17:44;;;;;;;4.90;3.37;;;;;21.00;99796.00;;;;2063685;28;20231;-63
2023/11/27 01:18:45;;;;;;;6.40;3.33;;;;;21.10;99797.00;;;;2060117;28;20221;-63
2023/11/27 01:19:45;;;;;;;3.93;2.80;;;;;21.00;99764.00;;;;2062422;28;20242;-63
2023/11/27 01:20:45;;;;;;;4.07;2.77;;;;;21.00;99795.00;;;;2063337;28;20219;-63
2023/11/27 01:21:46;;;;;;;4.10;3.30;;;;;21.00;99799.00;;;;2064308;28;20219;-63
2023/11/27 01:22:46;;;;;;;12.90;3.10;;;;;21.00;99786.00;;;;2061392;28;20241;-63
2023/11/27 01:23:46;;;;;;;3.70;3.10;;;;;21.00;99782.00;;;;2062529;28;20233;-63
2023/11/27 01:24:47;;;;;;;5.70;3.17;;;;;21.00;99782.00;;;;2065002;28;20229;-63
2023/11/27 01:25:47;;;;;;;5.10;3.33;;;;;21.00;99781.00;;;;2060554;28;20250;-63
2023/11/27 01:26:48;;;;;;;7.40;3.37;;;;;21.00;99786.00;;;;2063231;28;20226;-63
2023/11/27 01:27:48;;;;;;;4.50;3.10;;;;;21.00;99788.00;;;;2065608;28;20361;-63
2023/11/27 01:28:48;;;;;;;3.90;2.70;;;;;21.00;99788.00;;;;2055364;28;20276;-63
2023/11/27 01:29:49;;;;;;;5.57;3.30;;;;;21.00;99780.00;;;;2063536;28;20258;-63
2023/11/27 01:30:49;;;;;;;3.67;2.83;;;;;21.00;99783.00;;;;2069395;28;20284;-63
2023/11/27 01:31:49;;;;;;;4.23;2.73;;;;;21.00;99781.00;;;;2065142;28;20225;-63
2023/11/27 01:32:50;;;;;;;6.30;3.27;;;;;21.00;99782.00;;;;2067233;28;20281;-63
2023/11/27 01:33:51;;;;;;;4.17;2.67;;;;;20.90;99775.00;;;;2055448;28;20227;-63
2023/11/27 01:34:52;;;;;;;6.13;3.65;;;;;21.00;99776.00;;;;2067570;28;20237;-63
2023/11/27 01:35:54;;;;;;;4.30;2.90;;;;;21.00;99771.00;;;;2068646;28;20625;-63
2023/11/27 01:36:54;;;;;;;4.55;2.45;;;;;20.90;99773.00;;;;2064874;28;20469;-63
2023/11/27 01:37:54;;;;;;;6.13;3.20;;;;;20.90;99769.00;;;;2068577;28;20697;-63
2023/11/27 01:38:55;;;;;;;5.03;2.70;;;;;20.90;99768.00;;;;2055185;28;20218;-63
2023/11/27 01:39:55;;;;;;;5.03;2.60;;;;;20.90;99766.00;;;;2064577;28;20221;-63
2023/11/27 01:40:55;;;;;;;4.97;3.20;;;;;20.90;99771.00;;;;2060059;28;21652;-63
2023/11/27 01:41:56;;;;;;;4.40;3.03;;;;;21.00;99768.00;;;;2064274;28;20215;-63
2023/11/27 01:42:58;;;;;;;4.83;2.70;;;;;20.90;99761.00;;;;2063521;28;20273;-63
2023/11/27 01:43:58;;;;;;;3.75;2.70;;;;;20.90;99760.00;;;;2054811;28;20218;-63
2023/11/27 01:44:59;;;;;;;3.90;2.60;;;;;21.00;99766.00;;;;2061168;28;20239;-66
2023/11/27 01:46:28;;;;;;;3.33;2.13;;;;;21.00;99760.00;;;;2064926;28;20230;-63
2023/11/27 01:47:29;;;;;;;4.75;3.10;;;;;21.00;99756.00;;;;2047565;28;20640;-63
2023/11/27 01:48:29;;;;;;;3.83;2.50;;;;;20.90;99760.00;;;;2056294;28;20258;-63
2023/11/27 01:49:30;;;;;;;3.87;2.80;;;;;20.90;99751.00;;;;2054412;28;20572;-63
2023/11/27 01:50:31;;;;;;;6.93;3.20;;;;;20.90;99756.00;;;;2062381;28;20269;-63
2023/11/27 01:51:31;;;;;;;4.57;3.30;;;;;20.90;99753.00;;;;2067240;28;20729;-63
2023/11/27 01:52:33;;;;;;;6.07;4.53;;;;;20.90;99746.00;;;;2064912;28;20211;-63
2023/11/27 01:53:34;;;;;;;7.20;5.72;;;;;20.90;99747.00;;;;2061539;28;20223;-63
2023/11/27 01:54:36;;;;;;;10.65;7.35;;;;;20.90;99742.00;;;;2054273;28;20219;-63
2023/11/27 01:55:37;;;;;;;11.18;7.95;;;;;20.90;99741.00;;;;2063652;28;20614;-63
2023/11/27 01:56:37;;;;;;;17.83;10.73;;;;;20.90;99735.00;;;;2066303;28;20236;-63
2023/11/27 01:57:37;;;;;;;15.30;10.97;;;;;20.90;99739.00;;;;2063845;28;20223;-63
2023/11/27 01:58:38;;;;;;;24.00;14.83;;;;;20.90;99728.00;;;;2063160;28;20773;-63
2023/11/27 01:59:38;;;;;;;21.10;14.17;;;;;20.90;99732.00;;;;2054469;28;20634;-63
2023/11/27 02:00:38;;;;;;;32.33;19.77;;;;;20.90;99728.00;;;;2063739;28;20995;-63
2023/11/27 02:01:39;;;;;;;31.10;19.60;;;;;20.90;99722.00;;;;2055911;28;20239;-63
2023/11/27 02:02:42;;;;;;;29.97;17.87;;;;;20.80;99720.00;;;;2056017;28;20237;-63
2023/11/27 02:03:42;;;;;;;40.85;25.90;;;;;20.80;99721.00;;;;2062950;28;20321;-63
2023/11/27 02:04:42;;;;;;;45.63;27.23;;;;;20.90;99727.00;;;;2053038;28;20216;-63
2023/11/27 02:05:43;;;;;;;47.73;25.73;;;;;20.90;99729.00;;;;2056388;28;20235;-63
2023/11/27 02:06:43;;;;;;;38.83;25.10;;;;;20.80;99721.00;;;;2058442;28;20215;-63
2023/11/27 02:07:43;;;;;;;39.80;25.67;;;;;20.90;99722.00;;;;2064275;28;20211;-63
2023/11/27 02:08:44;;;;;;;43.93;28.60;;;;;20.90;99719.00;;;;2062108;28;20982;-63
2023/11/27 02:09:44;;;;;;;60.27;35.53;;;;;20.90;99708.00;;;;2055929;28;20653;-63
2023/11/27 02:10:44;;;;;;;68.90;42.10;;;;;20.80;99718.00;;;;2057609;28;20237;-63
2023/11/27 02:11:49;;;;;;;63.20;40.17;;;;;20.80;99711.00;;;;2059186;28;20211;-63
2023/11/27 02:12:49;;;;;;;65.05;41.00;;;;;20.90;99660.00;;;;2063845;28;20234;-63
2023/11/27 02:13:49;;;;;;;79.50;46.17;;;;;20.80;99708.00;;;;2054927;28;20238;-63
2023/11/27 02:14:52;;;;;;;76.53;42.50;;;;;20.80;99707.00;;;;2065497;28;20215;-63
2023/11/27 02:15:52;;;;;;;81.55;48.85;;;;;20.80;99702.00;;;;2068957;28;20227;-63
2023/11/27 02:16:53;;;;;;;81.70;48.93;;;;;20.80;99707.00;;;;2064201;28;20230;-63
2023/11/27 02:17:53;;;;;;;82.83;47.50;;;;;20.80;99694.00;;;;2065385;28;20238;-63
2023/11/27 02:18:53;;;;;;;77.43;47.23;;;;;20.80;99696.00;;;;2053974;28;20273;-63
2023/11/27 02:19:54;;;;;;;78.13;48.13;;;;;20.80;99692.00;;;;2066101;28;20222;-63
2023/11/27 02:21:00;;;;;;;81.80;46.80;;;;;20.80;99691.00;;;;2068845;28;20297;-63
2023/11/27 02:22:00;;;;;;;82.78;50.35;;;;;20.80;99692.00;;;;2065362;28;20277;-63
2023/11/27 02:23:01;;;;;;;75.67;47.53;;;;;20.80;99694.00;;;;2068204;28;20219;-63
2023/11/27 02:24:01;;;;;;;72.47;43.97;;;;;20.80;99686.00;;;;2054490;28;20219;-63
2023/11/27 02:25:01;;;;;;;80.70;47.93;;;;;20.80;99693.00;;;;2064515;28;20215;-63
2023/11/27 02:26:02;;;;;;;72.43;45.37;;;;;20.80;99688.00;;;;2063635;28;20271;-63
2023/11/27 02:27:02;;;;;;;78.23;46.77;;;;;20.80;99686.00;;;;2059864;28;20219;-63
2023/11/27 02:28:03;;;;;;;75.33;45.13;;;;;20.80;99683.00;;;;2064266;28;20225;-63
2023/11/27 02:29:03;;;;;;;80.33;46.03;;;;;20.80;99657.00;;;;2054223;28;20928;-63
2023/11/27 02:30:04;;;;;;;73.17;44.77;;;;;20.80;99667.00;;;;2071401;28;20222;-63
2023/11/27 02:31:05;;;;;;;77.87;46.90;;;;;20.70;99675.00;;;;2067734;28;20218;-63
2023/11/27 02:32:06;;;;;;;79.63;45.83;;;;;20.80;99680.00;;;;2067731;28;20562;-63
2023/11/27 02:33:06;;;;;;;69.83;43.30;;;;;20.80;99674.00;;;;2065532;28;20895;-63
2023/11/27 02:34:06;;;;;;;76.80;46.20;;;;;20.80;99673.00;;;;2055033;28;20465;-63
2023/11/27 02:35:07;;;;;;;72.90;44.00;;;;;20.70;99669.00;;;;2064436;28;20285;-63
2023/11/27 02:36:08;;;;;;;67.30;41.17;;;;;20.80;99670.00;;;;2063785;28;20222;-63
2023/11/27 02:37:08;;;;;;;66.50;43.00;;;;;20.80;99670.00;;;;2063927;28;20210;-63
2023/11/27 02:38:08;;;;;;;70.83;43.60;;;;;20.80;99665.00;;;;2064476;28;20449;-63
2023/11/27 02:39:09;;;;;;;69.63;41.90;;;;;20.80;99667.00;;;;2054410;28;20245;-63
2023/11/27 02:40:11;;;;;;;68.07;41.50;;;;;20.70;99668.00;;;;2064325;28;20281;-63
2023/11/27 02:41:11;;;;;;;68.07;40.88;;;;;20.80;99661.00;;;;2074315;28;22001;-63
2023/11/27 02:42:12;;;;;;;66.00;40.37;;;;;20.80;99656.00;;;;2073970;28;20284;-63
2023/11/27 02:43:14;;;;;;;62.08;38.67;;;;;20.70;99652.00;;;;2057243;28;20226;-63
2023/11/27 02:44:14;;;;;;;64.97;37.30;;;;;20.60;99652.00;;;;2055738;28;20793;-63
2023/11/27 02:45:15;;;;;;;60.43;38.80;;;;;20.70;99649.00;;;;2064483;28;20260;-63
2023/11/27 02:46:15;;;;;;;66.50;38.37;;;;;20.70;99652.00;;;;2063581;28;20222;-63
2023/11/27 02:47:16;;;;;;;54.83;35.70;;;;;20.70;99651.00;;;;2064196;28;20269;-63
2023/11/27 02:48:16;;;;;;;55.67;35.90;;;;;20.70;99646.00;;;;2066539;28;20946;-63
2023/11/27 02:49:17;;;;;;;51.80;35.50;;;;;20.80;99644.00;;;;2056623;28;20227;-63
2023/11/27 02:50:18;;;;;;;53.03;33.55;;;;;20.80;99640.00;;;;2064785;28;20230;-63
2023/11/27 02:51:20;;;;;;;56.60;34.65;;;;;20.80;99639.00;;;;2064311;28;20211;-63
2023/11/27 02:52:20;;;;;;;53.70;32.50;;;;;20.80;99637.00;;;;2064344;28;20214;-63
2023/11/27 02:53:22;;;;;;;47.70;31.37;;;;;20.70;99630.00;;;;2065021;28;20217;-63
2023/11/27 02:54:22;;;;;;;49.70;30.88;;;;;20.70;99633.00;;;;2054743;28;20668;-63
2023/11/27 02:55:22;;;;;;;46.47;30.80;;;;;20.70;99632.00;;;;2063781;28;20227;-63
2023/11/27 02:56:23;;;;;;;46.40;29.63;;;;;20.70;99634.00;;;;2064088;28;20234;-63
2023/11/27 02:57:23;;;;;;;46.60;30.30;;;;;20.70;99634.00;;;;2064987;28;20230;-63
2023/11/27 02:58:24;;;;;;;44.33;27.67;;;;;20.70;99624.00;;;;2071567;28;20229;-63
2023/11/27 02:59:25;;;;;;;44.97;28.40;;;;;20.70;99628.00;;;;2061621;28;20253;-63
2023/11/27 03:00:25;;;;;;;47.75;29.40;;;;;20.60;99627.00;;;;2068896;28;20686;-63
2023/11/27 03:01:26;;;;;;;41.83;28.00;;;;;20.70;99631.00;;;;2064804;28;20237;-63
2023/11/27 03:02:27;;;;;;;48.30;28.95;;;;;20.70;99636.00;;;;2065857;28;20230;-63
2023/11/27 03:03:27;;;;;;;39.00;27.37;;;;;20.70;99623.00;;;;2062848;28;20211;-63
2023/11/27 03:04:30;;;;;;;44.50;27.50;;;;;20.70;99628.00;;;;2052525;28;20460;-63
2023/11/27 03:05:30;;;;;;;42.80;27.95;;;;;20.70;99624.00;;;;2063135;28;20218;-63
2023/11/27 03:06:31;;;;;;;38.50;25.77;;;;;20.60;99623.00;;;;2064012;28;20265;-63
2023/11/27 03:07:31;;;;;;;44.57;27.07;;;;;20.60;99616.00;;;;2061972;28;20215;-63
2023/11/27 03:08:31;;;;;;;45.90;26.90;;;;;20.70;99621.00;;;;2063584;28;20222;-63
2023/11/27 03:09:32;;;;;;;44.50;26.17;;;;;20.70;99608.00;;;;2052383;28;20238;-63
2023/11/27 03:10:32;;;;;;;41.57;24.53;;;;;20.70;99623.00;;;;2064283;28;20223;-63
2023/11/27 03:11:32;;;;;;;38.27;25.43;;;;;20.70;99608.00;;;;2064918;28;20215;-63
2023/11/27 03:12:33;;;;;;;36.63;25.33;;;;;20.70;99608.00;;;;2064187;28;20218;-63
2023/11/27 03:13:34;;;;;;;39.57;23.70;;;;;20.70;99605.00;;;;2063884;28;20215;-63
2023/11/27 03:14:34;;;;;;;34.80;22.80;;;;;20.70;99612.00;;;;2054265;28;20469;-63
2023/11/27 03:15:34;;;;;;;36.20;24.90;;;;;20.70;99612.00;;;;2064096;28;20210;-63
2023/11/27 03:16:35;;;;;;;36.43;23.80;;;;;20.60;99604.00;;;;2062687;28;20253;-63
2023/11/27 03:17:37;;;;;;;36.20;22.13;;;;;20.60;99606.00;;;;2064153;28;20215;-63
2023/11/27 03:18:37;;;;;;;35.60;21.55;;;;;20.60;99593.00;;;;2063987;28;20218;-63
2023/11/27 03:19:38;;;;;;;34.40;21.77;;;;;20.60;99595.00;;;;2052449;28;20215;-63
2023/11/27 03:20:38;;;;;;;30.67;21.03;;;;;20.60;99598.00;;;;2063021;28;20246;-63
2023/11/27 03:21:38;;;;;;;31.63;20.17;;;;;20.60;99595.00;;;;2062812;28;20285;-63
2023/11/27 03:22:39;;;;;;;30.50;20.87;;;;;20.60;99592.00;;;;2062532;28;20246;-63
2023/11/27 03:23:40;;;;;;;30.20;19.85;;;;;20.70;99597.00;;;;2062761;28;20674;-63
2023/11/27 03:24:40;;;;;;;30.60;19.00;;;;;20.60;99598.00;;;;2060693;28;20324;-63
2023/11/27 03:25:40;;;;;;;28.80;19.97;;;;;20.60;99597.00;;;;2071237;28;20222;-63
2023/11/27 03:26:41;;;;;;;26.53;17.80;;;;;20.60;99595.00;;;;2068510;28;20230;-63
2023/11/27 03:27:41;;;;;;;30.00;18.90;;;;;20.60;99589.00;;;;2061474;28;20219;-63
2023/11/27 03:28:41;;;;;;;24.60;18.20;;;;;20.60;99577.00;;;;2063165;28;20218;-63
2023/11/27 03:29:42;;;;;;;26.50;16.63;;;;;20.60;99546.00;;;;2058425;28;20257;-63
2023/11/27 03:30:43;;;;;;;26.50;17.30;;;;;20.60;99576.00;;;;2063045;28;20223;-63
2023/11/27 03:31:43;;;;;;;26.00;15.80;;;;;20.60;99580.00;;;;2070056;28;20301;-63
2023/11/27 03:32:43;;;;;;;26.90;15.83;;;;;20.60;99573.00;;;;2063739;28;20211;-63
2023/11/27 03:33:44;;;;;;;26.40;17.30;;;;;20.60;99579.00;;;;2053754;28;20239;-63
2023/11/27 03:34:44;;;;;;;23.90;15.70;;;;;20.60;99580.00;;;;2063885;28;20211;-63
2023/11/27 03:35:44;;;;;;;23.10;15.80;;;;;20.60;99571.00;;;;2064149;28;20215;-63
2023/11/27 03:36:45;;;;;;;26.80;17.03;;;;;20.70;99576.00;;;;2063285;28;20218;-63
2023/11/27 03:37:45;;;;;;;25.33;16.30;;;;;20.60;99574.00;;;;2059991;28;20559;-63
2023/11/27 03:38:46;;;;;;;23.13;15.00;;;;;20.60;99562.00;;;;2055060;28;20246;-63
2023/11/27 03:39:46;;;;;;;22.70;14.37;;;;;20.60;99567.00;;;;2063804;28;20215;-63
2023/11/27 03:40:46;;;;;;;24.20;14.97;;;;;20.60;99567.00;;;;2063471;28;20297;-63
2023/11/27 03:41:47;;;;;;;21.53;14.47;;;;;20.60;99562.00;;;;2063223;28;20219;-63
2023/11/27 03:42:47;;;;;;;20.67;14.30;;;;;20.60;99563.00;;;;2051670;28;20254;-63
2023/11/27 03:43:48;;;;;;;18.27;13.30;;;;;20.60;99554.00;;;;2045037;28;20211;-63
2023/11/27 03:44:48;;;;;;;23.23;14.57;;;;;20.60;99565.00;;;;2071220;28;20206;-63
2023/11/27 03:45:49;;;;;;;18.93;12.87;;;;;20.60;99564.00;;;;2069223;28;20249;-63
2023/11/27 03:46:49;;;;;;;17.73;12.03;;;;;20.60;99557.00;;;;2063274;28;20272;-63
2023/11/27 03:47:50;;;;;;;18.77;12.73;;;;;20.60;99561.00;;;;2063164;28;20199;-64
2023/11/27 03:48:50;;;;;;;18.27;12.43;;;;;20.60;99544.00;;;;2054231;28;20207;-63
2023/11/27 03:49:50;;;;;;;18.43;12.87;;;;;20.60;99552.00;;;;2063598;28;20293;-63
2023/11/27 03:50:50;;;;;;;17.53;11.27;;;;;20.60;99541.00;;;;2068157;28;20206;-63
2023/11/27 03:51:51;;;;;;;20.40;12.87;;;;;20.60;99551.00;;;;2063869;28;20277;-63
2023/11/27 03:52:51;;;;;;;18.10;11.87;;;;;20.60;99545.00;;;;2065593;28;20712;-63
2023/11/27 03:53:51;;;;;;;16.33;11.03;;;;;20.60;99538.00;;;;2054811;28;20678;-63
2023/11/27 03:54:52;;;;;;;17.77;11.70;;;;;20.60;99541.00;;;;2063410;28;20298;-63
2023/11/27 03:55:52;;;;;;;19.50;11.93;;;;;20.50;99538.00;;;;2074910;28;20212;-63
2023/11/27 03:56:53;;;;;;;17.73;10.87;;;;;20.60;99535.00;;;;2061660;28;20219;-63
2023/11/27 03:57:53;;;;;;;16.70;11.00;;;;;20.60;99535.00;;;;2068776;28;20574;-63
2023/11/27 03:58:53;;;;;;;14.27;10.50;;;;;20.50;99534.00;;;;2054211;28;20682;-63
2023/11/27 03:59:54;;;;;;;13.90;10.10;;;;;20.50;99533.00;;;;2063872;28;20698;-63
2023/11/27 04:00:54;;;;;;;14.97;10.23;;;;;20.50;99537.00;;;;2063444;28;20682;-63
2023/11/27 04:01:54;;;;;;;14.03;10.10;;;;;20.60;99529.00;;;;2063690;28;20221;-63
2023/11/27 04:02:55;;;;;;;15.20;10.00;;;;;20.60;99529.00;;;;2063723;28;20211;-63
2023/11/27 04:03:55;;;;;;;14.13;9.53;;;;;20.60;99530.00;;;;2052061;28;20225;-63
2023/11/27 04:04:56;;;;;;;17.10;10.90;;;;;20.50;99523.00;;;;2065135;28;20206;-63
2023/11/27 04:05:56;;;;;;;13.77;9.90;;;;;20.50;99524.00;;;;2063455;28;20243;-63
2023/11/27 04:06:57;;;;;;;14.30;9.73;;;;;20.50;99530.00;;;;2062704;28;20277;-63
2023/11/27 04:07:57;;;;;;;13.00;8.67;;;;;20.50;99520.00;;;;2063480;28;20225;-63
2023/11/27 04:09:00;;;;;;;13.40;8.40;;;;;20.50;99520.00;;;;2053604;28;20211;-63
2023/11/27 04:10:01;;;;;;;13.27;9.50;;;;;20.40;99519.00;;;;2063843;28;20233;-63
2023/11/27 04:11:02;;;;;;;12.27;9.20;;;;;20.50;99517.00;;;;2063784;28;20229;-63
2023/11/27 04:12:05;;;;;;;13.15;8.85;;;;;20.50;99511.00;;;;2063560;28;20461;-63
2023/11/27 04:13:06;;;;;;;13.10;9.55;;;;;20.50;99516.00;;;;2063566;28;20768;-64
2023/11/27 04:14:06;;;;;;;13.35;8.82;;;;;20.50;99517.00;;;;2055870;28;20272;-64
2023/11/27 04:15:07;;;;;;;14.17;8.60;;;;;20.50;99507.00;;;;2071148;28;20257;-64
2023/11/27 04:16:10;;;;;;;10.70;7.57;;;;;20.50;99512.00;;;;2068350;28;20227;-64
2023/11/27 04:17:11;;;;;;;13.98;8.15;;;;;20.50;99504.00;;;;2066922;28;20818;-64
2023/11/27 04:18:12;;;;;;;13.55;8.25;;;;;20.50;99503.00;;;;2061611;28;20361;-64
2023/11/27 04:19:12;;;;;;;11.70;7.70;;;;;20.40;99504.00;;;;2053521;28;20227;-64
2023/11/27 04:20:14;;;;;;;12.43;7.40;;;;;20.50;99502.00;;;;2061268;28;20292;-64
2023/11/27 04:21:17;;;;;;;9.65;7.25;;;;;20.50;99505.00;;;;2063899;28;20573;-63
2023/11/27 04:22:17;;;;;;;13.93;7.93;;;;;20.50;99502.00;;;;2063425;28;20668;-63
2023/11/27 04:23:17;;;;;;;11.70;7.50;;;;;20.50;99506.00;;;;2060205;28;20248;-63
2023/11/27 04:24:18;;;;;;;10.80;7.40;;;;;20.50;99493.00;;;;2056311;28;20214;-63
2023/11/27 04:25:18;;;;;;;9.77;7.13;;;;;20.50;99498.00;;;;2063111;28;20225;-63
2023/11/27 04:26:21;;;;;;;11.07;6.60;;;;;20.50;99491.00;;;;2063160;28;20243;-63
2023/11/27 04:27:22;;;;;;;9.45;6.57;;;;;20.50;99495.00;;;;2063514;28;20206;-63
2023/11/27 04:28:22;;;;;;;9.47;6.97;;;;;20.50;99494.00;;;;2062930;28;20285;-63
2023/11/27 04:29:22;;;;;;;11.13;7.20;;;;;20.50;99484.00;;;;2053953;28;20215;-63
2023/11/27 04:30:23;;;;;;;10.40;7.53;;;;;20.50;99485.00;;;;2063491;28;20218;-63
2023/11/27 04:31:23;;;;;;;10.30;6.43;;;;;20.40;99486.00;;;;2063555;28;20212;-63
2023/11/27 04:32:23;;;;;;;10.60;6.50;;;;;20.40;99485.00;;;;2063554;28;20265;-63
2023/11/27 04:33:24;;;;;;;8.60;6.40;;;;;20.50;99489.00;;;;2069068;28;20768;-63
2023/11/27 04:34:24;;;;;;;10.90;6.80;;;;;20.40;99486.00;;;;2056038;28;20601;-63
2023/11/27 04:35:24;;;;;;;7.93;6.30;;;;;20.40;99484.00;;;;2062717;28;20641;-63
2023/11/27 04:36:25;;;;;;;11.30;7.20;;;;;20.50;99481.00;;;;2061402;28;20740;-63
2023/11/27 04:37:25;;;;;;;9.30;6.43;;;;;20.50;99484.00;;;;2063451;28;20693;-63
2023/11/27 04:38:25;;;;;;;9.60;6.33;;;;;20.50;99478.00;;;;2063177;28;20213;-63
2023/11/27 04:39:25;;;;;;;8.40;6.50;;;;;20.40;99473.00;;;;2051696;28;20231;-63
2023/11/27 04:40:26;;;;;;;9.10;6.37;;;;;20.40;99470.00;;;;2066823;28;20221;-63
2023/11/27 04:41:26;;;;;;;8.50;5.37;;;;;20.50;99470.00;;;;2064520;28;20227;-63
2023/11/27 04:42:27;;;;;;;9.77;5.27;;;;;20.40;99472.00;;;;2063759;28;20215;-63
2023/11/27 04:43:27;;;;;;;9.10;6.13;;;;;20.50;99469.00;;;;2062998;28;20245;-63
2023/11/27 04:44:27;;;;;;;7.50;5.13;;;;;20.40;99465.00;;;;2050282;28;20765;-63
2023/11/27 04:45:27;;;;;;;11.53;5.70;;;;;20.40;99467.00;;;;2063788;28;20269;-63
2023/11/27 04:46:28;;;;;;;9.30;5.37;;;;;20.40;99463.00;;;;2063399;28;20223;-63
2023/11/27 04:47:28;;;;;;;7.47;5.33;;;;;20.40;99454.00;;;;2062685;28;20226;-63
2023/11/27 04:48:30;;;;;;;9.73;5.87;;;;;20.40;99468.00;;;;2060378;28;20232;-63
2023/11/27 04:49:30;;;;;;;7.88;5.45;;;;;20.40;99452.00;;;;2050771;28;20583;-63
2023/11/27 04:50:30;;;;;;;7.77;5.50;;;;;20.40;99463.00;;;;2063658;28;20219;-63
2023/11/27 04:51:30;;;;;;;8.80;5.20;;;;;20.40;99453.00;;;;2063562;28;20207;-63
2023/11/27 04:52:31;;;;;;;8.90;5.50;;;;;20.40;99449.00;;;;2069725;28;20276;-63
2023/11/27 04:53:31;;;;;;;8.37;4.73;;;;;20.40;99440.00;;;;2064922;28;20214;-63
2023/11/27 04:54:31;;;;;;;6.73;4.53;;;;;20.40;99447.00;;;;2060149;28;20279;-63
2023/11/27 04:55:32;;;;;;;8.20;5.53;;;;;20.40;99446.00;;;;2070351;28;20226;-63
2023/11/27 04:56:33;;;;;;;7.40;4.33;;;;;20.40;99439.00;;;;2063187;28;20255;-63
2023/11/27 04:57:33;;;;;;;7.40;5.00;;;;;20.40;99444.00;;;;2064124;28;20230;-63
2023/11/27 04:58:33;;;;;;;7.37;5.20;;;;;20.40;99439.00;;;;2063631;28;20242;-63
2023/11/27 04:59:34;;;;;;;7.63;4.80;;;;;20.40;99440.00;;;;2059493;28;20241;-63